CheckWX is a tool to help pilots better visualize weather data.  It is not intended as a substitute for an official pre-flight weather briefing.

18:11:15 UTC

ESST METAR
Torsby Airport
Sweden
Current

21 mins ago

ESST 241750Z AUTO 11010KT 060V150 9999 SCT140/// 17/M01 Q1017
Observed
Apr-24 @ 17:50 UTC
Wind
  • 110° at 10 KTS
Visibility
10,000+ meters
Flight Rules
VFR
Cloud Levels
  • Scattered at 14,000' AGL
Temperature
17°C / 63°F
Dewpoint
-1°C / 30°F
Humidity
30%
Altimeter
30.03" Hg
Pressure
1016.92 hPa
Previous

51 mins ago

ESST 241720Z 11012G25KT 080V140 CAVOK 17/M02 Q1017
Observed
Apr-24 @ 17:20 UTC
Wind
  • 110° at 12 KTS
  • Gusting to 25 KTS
Visibility
10,000+ meters
Flight Rules
VFR
Cloud Levels
  • Clear skies
Temperature
17°C / 63°F
Dewpoint
-2°C / 28°F
Humidity
27%
Altimeter
30.03" Hg
Pressure
1016.92 hPa
Previous

1 hour ago

ESST 241650Z 12015KT 080V140 CAVOK 18/M02 Q1017
Observed
Apr-24 @ 16:50 UTC
Wind
  • 120° at 15 KTS
Visibility
10,000+ meters
Flight Rules
VFR
Cloud Levels
  • Clear skies
Temperature
18°C / 64°F
Dewpoint
-2°C / 28°F
Humidity
26%
Altimeter
30.03" Hg
Pressure
1016.92 hPa